Time;durP1;ratioP1;P1;durP2;ratioP2;P2;SDS_P1;SDS_P2;PMS_P1;PMS_P2;Temp;Humidity;BMP_temperature;BMP_pressure;BME280_temperature;BME280_humidity;BME280_pressure;Samples;Min_cycle;Max_cycle;Signal;HPM_P1;HPM_P2
2021/01/14 00:00:57;;;;;;;100.82;54.58;;;77.70;1587.20;;;;;;4935486;29;20039;-69
2021/01/14 00:03:23;;;;;;;88.35;49.67;;;102.40;1561.60;;;;;;4935326;29;20035;-70
2021/01/14 00:05:48;;;;;;;85.40;49.92;;;77.50;1587.20;;;;;;4935456;29;20070;-69
2021/01/14 00:08:14;;;;;;;78.20;45.40;;;77.30;1612.80;;;;;;4934717;29;20032;-70
2021/01/14 00:10:40;;;;;;;80.90;43.97;;;77.40;1612.80;;;;;;4916163;29;20028;-69
2021/01/14 00:13:09;;;;;;;83.85;46.30;;;77.20;1612.80;;;;;;4916587;29;20025;-69
2021/01/14 00:15:35;;;;;;;82.85;45.90;;;77.20;1612.80;;;;;;4916594;29;20031;-69
2021/01/14 00:18:00;;;;;;;82.95;46.17;;;77.20;1638.40;;;;;;4926400;29;20032;-68
2021/01/14 00:20:27;;;;;;;88.20;47.88;;;77.20;1612.80;;;;;;4922534;29;20092;-69
2021/01/14 00:22:53;;;;;;;84.15;49.78;;;77.30;1612.80;;;;;;4916334;29;20062;-70
2021/01/14 00:25:20;;;;;;;90.05;50.97;;;77.30;1612.80;;;;;;4917326;29;20035;-69
2021/01/14 00:27:46;;;;;;;90.88;52.40;;;77.00;1638.40;;;;;;4920096;29;20032;-69
2021/01/14 00:30:20;;;;;;;95.80;52.60;;;77.20;1638.40;;;;;;4917791;29;20039;-70
2021/01/14 00:32:46;;;;;;;104.35;56.53;;;77.00;1664.00;;;;;;4910368;29;20020;-69
2021/01/14 00:35:13;;;;;;;97.05;57.03;;;77.10;1638.40;;;;;;4909895;29;20522;-70
2021/01/14 00:37:52;;;;;;;112.35;58.15;;;77.30;1612.80;;;;;;4908311;29;20032;-68
2021/01/14 00:40:28;;;;;;;105.90;59.22;;;77.20;1638.40;;;;;;4900805;29;20025;-69
2021/01/14 00:43:05;;;;;;;110.10;57.97;;;77.20;1612.80;;;;;;4900561;29;20081;-69
2021/01/14 00:45:32;;;;;;;106.93;59.55;;;77.10;1638.40;;;;;;4900755;29;20056;-70
2021/01/14 00:48:00;;;;;;;102.30;56.10;;;77.10;1612.80;;;;;;4919896;29;20023;-69
2021/01/14 00:50:26;;;;;;;111.57;64.40;;;77.40;1587.20;;;;;;4938334;29;20027;-69
2021/01/14 00:52:52;;;;;;;111.60;62.97;;;77.40;1612.80;;;;;;4938390;29;20027;-69
2021/01/14 00:55:19;;;;;;;124.28;67.65;;;77.10;1638.40;;;;;;4938498;29;20489;-69
2021/01/14 00:57:45;;;;;;;208.45;123.95;;;77.10;1638.40;;;;;;4938040;29;20035;-69
2021/01/14 01:00:17;;;;;;;142.55;77.97;;;76.90;1664.00;;;;;;4929961;29;20039;-72
2021/01/14 01:02:47;;;;;;;113.82;64.85;;;52.10;1664.00;;;;;;4919248;29;20047;-70
2021/01/14 01:05:15;;;;;;;98.15;57.75;;;52.10;1689.60;;;;;;4916753;29;20028;-71
2021/01/14 01:07:51;;;;;;;106.63;58.95;;;52.10;1664.00;;;;;;4919327;29;20024;-70
2021/01/14 01:10:17;;;;;;;105.72;58.45;;;77.00;1664.00;;;;;;4919199;29;20032;-69
2021/01/14 01:12:42;;;;;;;101.28;58.17;;;77.00;1638.40;;;;;;4919148;29;20030;-70
2021/01/14 01:15:09;;;;;;;101.38;53.92;;;76.90;1638.40;;;;;;4919239;29;20028;-68
2021/01/14 01:17:34;;;;;;;98.55;53.70;;;52.10;1664.00;;;;;;4919425;29;20028;-72
2021/01/14 01:20:00;;;;;;;87.43;49.70;;;76.90;1638.40;;;;;;4919450;29;20086;-73
2021/01/14 01:22:26;;;;;;;92.63;51.58;;;76.90;1638.40;;;;;;4919704;29;20028;-73
2021/01/14 01:24:52;;;;;;;86.35;50.83;;;52.10;1638.40;;;;;;4919752;29;20025;-70
2021/01/14 01:27:18;;;;;;;86.72;49.17;;;76.90;1638.40;;;;;;4919601;29;20095;-73
2021/01/14 01:29:44;;;;;;;82.80;47.80;;;76.90;1612.80;;;;;;4919398;29;20032;-73
2021/01/14 01:32:10;;;;;;;78.45;45.92;;;76.90;1612.80;;;;;;4919711;29;20043;-72
2021/01/14 01:34:35;;;;;;;88.35;48.97;;;76.90;1612.80;;;;;;4919005;29;20048;-73
2021/01/14 01:37:01;;;;;;;78.93;47.22;;;76.90;1612.80;;;;;;4918473;29;20036;-74
2021/01/14 01:39:27;;;;;;;74.43;41.55;;;76.90;1612.80;;;;;;4919378;29;20052;-73
2021/01/14 01:42:00;;;;;;;79.50;43.78;;;76.80;1638.40;;;;;;4919243;29;20222;-73
2021/01/14 01:44:25;;;;;;;74.10;40.10;;;52.10;1664.00;;;;;;4919119;29;20031;-73
2021/01/14 01:47:11;;;;;;;73.53;41.10;;;52.00;1638.40;;;;;;4919045;29;20095;-73
2021/01/14 01:49:39;;;;;;;60.22;34.65;;;76.90;1638.40;;;;;;4918615;29;20052;-73
2021/01/14 01:52:07;;;;;;;64.28;37.92;;;52.10;1638.40;;;;;;4919081;29;20028;-73
2021/01/14 01:54:33;;;;;;;64.78;37.60;;;52.00;1638.40;;;;;;4919054;29;20471;-73
2021/01/14 01:57:01;;;;;;;64.65;35.83;;;76.80;1638.40;;;;;;4918741;29;20475;-72
2021/01/14 01:59:29;;;;;;;66.20;39.10;;;76.90;1612.80;;;;;;4918895;29;20101;-73
2021/01/14 02:01:55;;;;;;;59.53;34.10;;;76.90;1612.80;;;;;;4918741;29;20026;-72
2021/01/14 02:04:20;;;;;;;71.75;37.85;;;51.90;1664.00;;;;;;4918650;29;20036;-75
2021/01/14 02:06:55;;;;;;;64.38;37.97;;;52.10;1638.40;;;;;;4918823;29;20029;-75
2021/01/14 02:09:23;;;;;;;73.32;41.50;;;51.40;1689.60;;;;;;4918837;29;20032;-75
2021/01/14 02:11:59;;;;;;;63.80;38.88;;;51.80;1689.60;;;;;;4918350;29;20067;-74
2021/01/14 02:14:29;;;;;;;73.90;38.28;;;52.00;1638.40;;;;;;4918512;29;20052;-75
2021/01/14 02:16:55;;;;;;;70.50;38.50;;;51.40;1689.60;;;;;;4918545;29;20106;-74
2021/01/14 02:19:49;;;;;;;62.20;35.97;;;51.30;1715.20;;;;;;4918385;29;20020;-75
2021/01/14 02:22:27;;;;;;;59.95;33.38;;;51.60;1664.00;;;;;;4917095;29;20040;-75
2021/01/14 02:25:22;;;;;;;45.17;25.98;;;51.70;1664.00;;;;;;4918252;29;20016;-74
2021/01/14 02:27:49;;;;;;;55.00;32.05;;;51.50;1664.00;;;;;;4918289;29;20116;-74
2021/01/14 02:30:16;;;;;;;52.78;29.65;;;51.70;1638.40;;;;;;4918250;29;20530;-75
2021/01/14 02:32:45;;;;;;;56.33;31.92;;;51.70;1638.40;;;;;;4918335;29;20035;-73
2021/01/14 02:35:11;;;;;;;58.92;33.03;;;51.60;1638.40;;;;;;4917829;29;20074;-73
2021/01/14 02:37:37;;;;;;;52.95;31.65;;;51.70;1638.40;;;;;;4918248;29;20036;-72
2021/01/14 02:40:03;;;;;;;64.50;34.03;;;51.80;1638.40;;;;;;4918234;29;20024;-72
2021/01/14 02:42:29;;;;;;;69.88;36.17;;;26.20;1689.60;;;;;;4918366;29;20454;-72
2021/01/14 02:44:55;;;;;;;60.03;30.98;;;51.30;1689.60;;;;;;4918068;29;20021;-72
2021/01/14 02:47:22;;;;;;;54.40;30.00;;;26.10;1715.20;;;;;;4918025;29;20028;-72
2021/01/14 02:49:55;;;;;;;64.43;34.28;;;26.50;1689.60;;;;;;4917907;29;20072;-72
2021/01/14 02:52:22;;;;;;;70.72;39.42;;;51.30;1689.60;;;;;;4917805;29;20165;-72
2021/01/14 02:54:49;;;;;;;57.17;33.60;;;51.40;1664.00;;;;;;4917983;29;20611;-70
2021/01/14 02:57:17;;;;;;;38.55;23.70;;;51.40;1664.00;;;;;;4917925;29;20136;-70
2021/01/14 02:59:44;;;;;;;39.92;21.52;;;51.40;1664.00;;;;;;4917939;29;20090;-71
2021/01/14 03:02:10;;;;;;;35.55;20.45;;;51.60;1638.40;;;;;;4917709;29;20083;-71
2021/01/14 03:04:36;;;;;;;39.95;20.73;;;51.60;1638.40;;;;;;4917752;29;20028;-71
2021/01/14 03:07:01;;;;;;;41.83;22.52;;;51.70;1612.80;;;;;;4917662;29;20036;-72
2021/01/14 03:09:27;;;;;;;44.25;26.15;;;51.70;1612.80;;;;;;4917808;29;20023;-72
2021/01/14 03:11:53;;;;;;;51.90;26.67;;;51.70;1612.80;;;;;;4917570;29;20112;-72
2021/01/14 03:14:18;;;;;;;49.95;25.55;;;51.20;1638.40;;;;;;4917499;29;20463;-72
2021/01/14 03:16:44;;;;;;;58.55;32.03;;;51.30;1638.40;;;;;;4917477;29;20463;-70
2021/01/14 03:19:10;;;;;;;66.93;36.20;;;26.30;1638.40;;;;;;4917517;29;20035;-71
2021/01/14 03:21:35;;;;;;;68.28;32.03;;;26.40;1664.00;;;;;;4917381;29;20028;-71
2021/01/14 03:24:01;;;;;;;73.38;33.15;;;26.30;1638.40;;;;;;4917395;29;20032;-72
2021/01/14 03:26:27;;;;;;;69.68;34.10;;;51.30;1664.00;;;;;;4916305;29;20554;-71
2021/01/14 03:28:52;;;;;;;92.22;46.13;;;51.20;1664.00;;;;;;4917268;29;20024;-72
2021/01/14 03:31:18;;;;;;;80.43;41.53;;;51.40;1638.40;;;;;;4917215;29;20036;-72
2021/01/14 03:33:45;;;;;;;89.60;47.50;;;51.20;1664.00;;;;;;4917145;29;20040;-70
2021/01/14 03:36:17;;;;;;;91.60;49.50;;;26.50;1664.00;;;;;;4917221;29;20060;-71
2021/01/14 03:38:43;;;;;;;99.05;52.85;;;26.50;1664.00;;;;;;4917240;29;20020;-71
2021/01/14 03:41:14;;;;;;;84.50;46.33;;;26.50;1664.00;;;;;;4917373;29;20028;-73
2021/01/14 03:43:40;;;;;;;67.10;33.80;;;26.50;1664.00;;;;;;4917090;29;20051;-71
2021/01/14 03:46:11;;;;;;;67.32;33.58;;;26.30;1664.00;;;;;;4917235;29;20032;-73
2021/01/14 03:48:41;;;;;;;71.68;39.50;;;51.20;1664.00;;;;;;4917372;29;20491;-71
2021/01/14 03:51:20;;;;;;;81.00;42.83;;;51.20;1664.00;;;;;;4916954;29;20040;-73
2021/01/14 03:53:47;;;;;;;79.43;43.30;;;26.40;1664.00;;;;;;4917117;29;20028;-72
2021/01/14 03:56:13;;;;;;;75.93;48.83;;;26.50;1664.00;;;;;;4917087;29;20497;-72
2021/01/14 03:58:39;;;;;;;71.20;40.92;;;26.30;1689.60;;;;;;4916859;29;20056;-71
2021/01/14 04:01:06;;;;;;;79.43;43.30;;;26.30;1664.00;;;;;;4919321;29;20020;-73
2021/01/14 04:03:32;;;;;;;91.25;50.78;;;26.20;1689.60;;;;;;4920894;29;20039;-76
2021/01/14 04:05:58;;;;;;;149.13;81.50;;;26.10;1689.60;;;;;;4920742;29;20125;-75
2021/01/14 04:08:23;;;;;;;128.70;71.15;;;26.20;1689.60;;;;;;4921202;29;20114;-78
2021/01/14 04:10:49;;;;;;;104.35;61.25;;;26.50;1664.00;;;;;;4920915;29;20028;-78
2021/01/14 04:13:15;;;;;;;99.72;59.67;;;26.40;1689.60;;;;;;4919968;29;20095;-77
2021/01/14 04:15:41;;;;;;;99.88;56.17;;;26.40;1664.00;;;;;;4920743;29;20031;-78
2021/01/14 04:18:08;;;;;;;88.97;49.53;;;26.10;1715.20;;;;;;4920727;29;20495;-72
2021/01/14 04:20:34;;;;;;;82.68;45.78;;;0.70;1766.40;;;;;;4920536;29;20073;-69
2021/01/14 04:23:00;;;;;;;74.97;42.75;;;25.90;1715.20;;;;;;4919767;29;20471;-72
2021/01/14 04:25:32;;;;;;;79.05;44.53;;;26.10;1689.60;;;;;;4920646;29;20040;-71
2021/01/14 04:28:00;;;;;;;80.53;48.33;;;26.20;1664.00;;;;;;4920419;29;20024;-71
2021/01/14 04:30:26;;;;;;;84.75;48.15;;;26.40;1638.40;;;;;;4920434;29;20043;-73
2021/01/14 04:32:59;;;;;;;58.45;34.53;;;26.50;1638.40;;;;;;4920377;29;20024;-73
2021/01/14 04:35:26;;;;;;;52.85;31.65;;;26.50;1612.80;;;;;;4920100;29;20048;-71
2021/01/14 04:37:51;;;;;;;74.10;44.85;;;26.40;1612.80;;;;;;4920617;29;20024;-71
2021/01/14 04:40:17;;;;;;;77.68;46.88;;;26.00;1638.40;;;;;;4919028;29;20110;-72
2021/01/14 04:42:50;;;;;;;81.57;46.45;;;26.10;1638.40;;;;;;4920426;29;20039;-71
2021/01/14 04:45:18;;;;;;;74.07;43.60;;;25.90;1664.00;;;;;;4920212;29;20103;-74
2021/01/14 04:47:48;;;;;;;93.88;54.70;;;26.10;1638.40;;;;;;4919083;29;20036;-71
2021/01/14 04:50:16;;;;;;;106.90;63.50;;;26.40;1612.80;;;;;;4920075;29;20024;-72
2021/01/14 04:52:42;;;;;;;105.88;62.90;;;26.30;1612.80;;;;;;4920191;29;20020;-70
2021/01/14 04:55:15;;;;;;;104.00;61.00;;;26.50;1587.20;;;;;;4920160;29;20149;-69
2021/01/14 04:57:44;;;;;;;118.25;66.38;;;26.10;1612.80;;;;;;4919969;29;20024;-69
2021/01/14 05:00:13;;;;;;;145.27;81.68;;;25.90;1638.40;;;;;;4919872;29;20031;-69
2021/01/14 05:02:52;;;;;;;183.65;109.78;;;26.10;1638.40;;;;;;4919772;29;20029;-69
2021/01/14 05:05:22;;;;;;;131.00;73.03;;;26.10;1612.80;;;;;;4919721;29;20032;-70
2021/01/14 05:08:14;;;;;;;83.07;48.40;;;26.30;1612.80;;;;;;4919888;29;20586;-69
2021/01/14 05:10:41;;;;;;;179.00;101.00;;;26.20;1612.80;;;;;;4919314;29;20051;-69
2021/01/14 05:13:09;;;;;;;180.43;98.32;;;0.80;1715.20;;;;;;4918283;29;20057;-70
2021/01/14 05:15:36;;;;;;;187.15;108.50;;;0.50;1766.40;;;;;;4919880;29;20024;-70
2021/01/14 05:18:02;;;;;;;176.25;98.15;;;0.30;1792.00;;;;;;4919933;29;20391;-69
2021/01/14 05:20:28;;;;;;;179.63;97.75;;;0.10;1740.80;;;;;;4919930;29;20024;-70
2021/01/14 05:22:57;;;;;;;157.73;89.07;;;0.40;1740.80;;;;;;4919709;29;20028;-70
2021/01/14 05:25:23;;;;;;;137.98;76.85;;;0.60;1715.20;;;;;;4919629;29;20483;-71
2021/01/14 05:27:49;;;;;;;124.78;70.18;;;0.90;1664.00;;;;;;4919429;29;20043;-70
2021/01/14 05:30:16;;;;;;;110.43;60.95;;;25.70;1664.00;;;;;;4919220;29;20087;-71
2021/01/14 05:32:43;;;;;;;116.68;65.38;;;25.70;1664.00;;;;;;4919365;29;20027;-71
2021/01/14 05:35:13;;;;;;;124.65;72.55;;;25.70;1638.40;;;;;;4918933;29;20087;-75
2021/01/14 05:37:42;;;;;;;123.03;68.78;;;0.40;1715.20;;;;;;4919244;29;20372;-71
2021/01/14 05:40:22;;;;;;;124.60;71.80;;;12.90;1792.00;;;;;;4919202;29;20103;-70
2021/01/14 05:43:07;;;;;;;127.15;66.47;;;0.30;1740.80;;;;;;4919329;29;20035;-72
2021/01/14 05:45:33;;;;;;;147.32;81.13;;;0.90;1689.60;;;;;;4919095;29;20020;-72
2021/01/14 05:48:09;;;;;;;175.75;93.70;;;0.50;1740.80;;;;;;4919127;29;20071;-71
2021/01/14 05:50:55;;;;;;;155.70;88.05;;;0.60;1740.80;;;;;;4919063;29;20123;-72
2021/01/14 05:53:23;;;;;;;167.27;94.95;;;0.90;1689.60;;;;;;4918568;29;20040;-71
2021/01/14 05:55:52;;;;;;;145.70;87.38;;;25.60;1715.20;;;;;;4918957;29;20024;-71
2021/01/14 05:58:22;;;;;;;151.13;88.75;;;0.70;1740.80;;;;;;4918816;29;20500;-72
2021/01/14 06:00:48;;;;;;;163.48;96.20;;;0.90;1740.80;;;;;;4918752;29;21531;-68
2021/01/14 06:03:29;;;;;;;135.23;77.93;;;26.00;1689.60;;;;;;4918740;29;20043;-69
2021/01/14 06:05:58;;;;;;;160.52;90.82;;;26.30;1664.00;;;;;;4918569;29;20036;-70
2021/01/14 06:08:26;;;;;;;158.82;88.88;;;26.50;1638.40;;;;;;4918768;29;20063;-69
2021/01/14 06:10:52;;;;;;;159.23;95.18;;;26.50;1638.40;;;;;;4918536;29;20036;-69
2021/01/14 06:13:19;;;;;;;164.60;99.32;;;26.50;1664.00;;;;;;4918151;29;20027;-68
2021/01/14 06:15:58;;;;;;;194.63;114.05;;;51.40;1664.00;;;;;;4918111;29;20061;-68
2021/01/14 06:18:24;;;;;;;219.05;126.47;;;51.50;1638.40;;;;;;4918120;29;20012;-70
2021/01/14 06:20:52;;;;;;;199.50;114.95;;;51.60;1638.40;;;;;;4918094;29;20023;-67
2021/01/14 06:23:22;;;;;;;190.90;112.45;;;51.60;1638.40;;;;;;4917689;29;20020;-69
2021/01/14 06:25:49;;;;;;;225.25;130.88;;;51.60;1664.00;;;;;;4917887;29;20021;-69
2021/01/14 06:28:16;;;;;;;244.38;139.55;;;26.40;1715.20;;;;;;4917197;29;20111;-71
2021/01/14 06:31:07;;;;;;;266.67;147.48;;;51.30;1715.20;;;;;;4917615;29;20043;-72
2021/01/14 06:33:33;;;;;;;251.35;150.38;;;51.60;1689.60;;;;;;4917096;29;20061;-69
2021/01/14 06:36:06;;;;;;;228.57;133.75;;;51.80;1689.60;;;;;;4917966;29;20044;-69
2021/01/14 06:38:41;;;;;;;243.23;139.27;;;51.60;1689.60;;;;;;4918141;29;20036;-71
2021/01/14 06:41:14;;;;;;;253.75;150.20;;;51.80;1689.60;;;;;;4918126;29;20107;-69
2021/01/14 06:43:42;;;;;;;247.63;144.32;;;51.80;1689.60;;;;;;4918050;29;20494;-71
2021/01/14 06:46:18;;;;;;;242.05;142.25;;;51.30;1715.20;;;;;;4917594;29;20035;-70
2021/01/14 06:49:03;;;;;;;225.82;138.05;;;51.70;1689.60;;;;;;4899326;29;20028;-70
2021/01/14 06:51:54;;;;;;;241.85;137.95;;;51.40;1689.60;;;;;;4899047;29;20040;-71
2021/01/14 06:54:21;;;;;;;244.63;148.10;;;51.70;1664.00;;;;;;4899345;29;20384;-70
2021/01/14 06:57:15;;;;;;;236.45;138.93;;;51.30;1715.20;;;;;;4899223;29;20530;-71
2021/01/14 06:59:41;;;;;;;236.73;140.93;;;26.30;1715.20;;;;;;4898936;29;20036;-70
2021/01/14 07:02:07;;;;;;;312.50;179.95;;;51.30;1715.20;;;;;;4898801;29;20025;-70
2021/01/14 07:04:42;;;;;;;354.88;214.73;;;26.10;1715.20;;;;;;4898822;29;20032;-71
2021/01/14 07:07:28;;;;;;;338.55;200.32;;;25.90;1740.80;;;;;;4898747;29;20039;-72
2021/01/14 07:10:06;;;;;;;283.35;167.93;;;25.80;1766.40;;;;;;4898694;29;20045;-71
2021/01/14 07:12:43;;;;;;;218.60;126.45;;;25.90;1740.80;;;;;;4898690;29;20082;-70
2021/01/14 07:15:11;;;;;;;180.43;107.03;;;26.20;1689.60;;;;;;4898742;29;20028;-70
2021/01/14 07:17:40;;;;;;;143.52;87.55;;;25.90;1715.20;;;;;;4898771;29;20033;-67
2021/01/14 07:20:13;;;;;;;123.55;71.72;;;26.30;1689.60;;;;;;4898581;29;20112;-71
2021/01/14 07:22:53;;;;;;;114.78;65.85;;;26.50;1664.00;;;;;;4898495;29;20137;-68
2021/01/14 07:25:20;;;;;;;110.47;65.93;;;51.60;1664.00;;;;;;4898461;29;20039;-70
2021/01/14 07:27:48;;;;;;;113.75;65.15;;;51.90;1638.40;;;;;;4898587;29;20161;-69
2021/01/14 07:30:19;;;;;;;105.97;58.95;;;52.00;1587.20;;;;;;4898276;29;20047;-70
2021/01/14 07:33:04;;;;;;;103.13;64.35;;;51.90;1587.20;;;;;;4898454;29;20388;-71
2021/01/14 07:35:33;;;;;;;133.35;80.32;;;52.00;1587.20;;;;;;4897282;29;20048;-72
2021/01/14 07:37:59;;;;;;;216.10;127.95;;;76.80;1587.20;;;;;;4898266;29;20025;-71
2021/01/14 07:40:32;;;;;;;236.85;133.70;;;52.10;1612.80;;;;;;4898339;29;20029;-70
2021/01/14 07:42:58;;;;;;;171.82;106.90;;;76.90;1612.80;;;;;;4898281;29;20028;-71
2021/01/14 07:45:24;;;;;;;174.52;104.70;;;51.80;1664.00;;;;;;4912426;29;20024;-71
2021/01/14 07:47:50;;;;;;;119.60;68.40;;;51.60;1689.60;;;;;;4896999;29;20024;-70
2021/01/14 07:50:20;;;;;;;138.73;86.72;;;52.10;1638.40;;;;;;4898403;29;20468;-71
2021/01/14 07:52:48;;;;;;;102.78;61.13;;;51.60;1689.60;;;;;;4898041;29;20025;-70
2021/01/14 07:55:27;;;;;;;109.45;65.65;;;52.00;1638.40;;;;;;4898144;29;20025;-71
2021/01/14 07:58:02;;;;;;;156.32;98.10;;;52.10;1664.00;;;;;;4898080;29;20043;-71
2021/01/14 08:00:28;;;;;;;122.78;73.65;;;51.50;1715.20;;;;;;4898073;29;20073;-68
2021/01/14 08:03:09;;;;;;;121.55;71.07;;;51.50;1689.60;;;;;;4897509;29;20021;-67
2021/01/14 08:05:57;;;;;;;143.07;85.18;;;51.50;1689.60;;;;;;4898314;29;20061;-68
2021/01/14 08:08:28;;;;;;;103.38;60.85;;;51.30;1715.20;;;;;;4896811;29;20444;-71
2021/01/14 08:11:09;;;;;;;77.28;44.30;;;51.20;1689.60;;;;;;4898229;29;20051;-71
2021/01/14 08:14:04;;;;;;;65.35;36.85;;;26.50;1664.00;;;;;;4912311;29;20432;-69
2021/01/14 08:16:35;;;;;;;61.03;36.65;;;26.30;1689.60;;;;;;4897933;29;20021;-70
2021/01/14 08:19:08;;;;;;;;;;;26.30;1689.60;;;;;;4898342;29;20383;-71
2021/01/14 08:21:34;;;;;;;62.83;38.08;;;26.40;1664.00;;;;;;4897783;29;19915;-71
2021/01/14 08:24:01;;;;;;;45.80;29.70;;;51.60;1638.40;;;;;;4898019;29;20115;-71
2021/01/14 08:26:26;;;;;;;81.82;47.08;;;52.00;1587.20;;;;;;4897691;29;20035;-67
2021/01/14 08:29:02;;;;;;;87.55;53.58;;;52.00;1612.80;;;;;;4898304;29;20033;-71
2021/01/14 08:31:37;;;;;;;195.50;125.53;;;51.90;1612.80;;;;;;4897673;29;20040;-70
2021/01/14 08:34:05;;;;;;;194.15;147.98;;;76.80;1612.80;;;;;;4896438;29;20092;-71
2021/01/14 08:36:40;;;;;;;206.27;124.45;;;76.90;1612.80;;;;;;4897688;29;20124;-71
2021/01/14 08:39:09;;;;;;;228.45;136.25;;;76.90;1612.80;;;;;;4897852;29;20024;-71
2021/01/14 08:41:37;;;;;;;234.23;140.90;;;52.10;1638.40;;;;;;4898053;29;20028;-71
2021/01/14 08:44:04;;;;;;;139.50;82.60;;;52.00;1664.00;;;;;;4897929;29;20029;-70
2021/01/14 08:46:40;;;;;;;139.95;78.90;;;52.00;1638.40;;;;;;4898809;29;20437;-71
2021/01/14 08:49:17;;;;;;;133.95;76.03;;;52.10;1638.40;;;;;;4910846;29;20398;-71
2021/01/14 08:51:43;;;;;;;144.85;87.45;;;52.10;1612.80;;;;;;4919276;29;20036;-69
2021/01/14 08:54:12;;;;;;;177.48;106.88;;;77.20;1612.80;;;;;;4918625;29;20550;-71
2021/01/14 08:56:39;;;;;;;171.75;107.75;;;77.10;1612.80;;;;;;4915111;29;20051;-71
2021/01/14 08:59:16;;;;;;;170.65;105.13;;;77.10;1638.40;;;;;;4901387;29;20029;-71
2021/01/14 09:01:42;;;;;;;139.82;88.15;;;77.10;1638.40;;;;;;4901046;29;20386;-70
2021/01/14 09:04:10;;;;;;;148.13;93.10;;;77.20;1638.40;;;;;;4900963;29;20028;-72
2021/01/14 09:06:38;;;;;;;113.85;67.90;;;77.70;1612.80;;;;;;4901097;29;20068;-71
2021/01/14 09:09:13;;;;;;;58.90;35.10;;;102.50;1664.00;;;;;;4901092;29;20080;-71
2021/01/14 09:11:40;;;;;;;70.32;50.17;;;102.70;1715.20;;;;;;4900790;29;20073;-71
2021/01/14 09:14:07;;;;;;;73.18;48.92;;;103.00;1715.20;;;;;;4900795;29;20021;-71
2021/01/14 09:16:34;;;;;;;28.67;23.80;;;103.20;1689.60;;;;;;4900555;29;20060;-68
2021/01/14 09:19:01;;;;;;;26.25;20.05;;;128.00;1715.20;;;;;;4901062;29;20029;-67
2021/01/14 09:21:34;;;;;;;32.03;23.80;;;128.30;1715.20;;;;;;4900632;29;20499;-69
2021/01/14 09:24:09;;;;;;;38.28;26.70;;;128.40;1689.60;;;;;;4900567;29;20079;-71
2021/01/14 09:26:38;;;;;;;40.30;27.52;;;128.30;1689.60;;;;;;4901016;29;20084;-71
2021/01/14 09:29:05;;;;;;;43.00;27.60;;;128.40;1689.60;;;;;;4901182;29;20021;-71
2021/01/14 09:31:33;;;;;;;41.92;27.85;;;128.40;1664.00;;;;;;4916789;29;20036;-70
2021/01/14 09:34:00;;;;;;;55.47;35.20;;;128.60;1638.40;;;;;;4919633;29;20020;-71
2021/01/14 09:36:25;;;;;;;50.83;32.30;;;128.70;1664.00;;;;;;4919135;29;20048;-70
2021/01/14 09:38:59;;;;;;;29.15;19.05;;;128.70;1664.00;;;;;;4919508;29;20024;-71
2021/01/14 09:41:29;;;;;;;26.40;17.45;;;128.60;1715.20;;;;;;4919167;29;20063;-70
2021/01/14 09:44:04;;;;;;;47.65;30.40;;;128.50;1740.80;;;;;;4919093;29;20467;-71
2021/01/14 09:46:34;;;;;;;50.80;32.70;;;128.20;1792.00;;;;;;4919305;29;20032;-70
2021/01/14 09:49:11;;;;;;;35.88;26.65;;;128.40;1817.60;;;;;;4919078;29;20457;-71
2021/01/14 09:51:40;;;;;;;35.92;26.15;;;128.30;1843.20;;;;;;4918977;29;20056;-71
2021/01/14 09:54:08;;;;;;;44.05;27.73;;;128.10;1894.40;;;;;;4917413;29;20491;-71
2021/01/14 09:56:37;;;;;;;40.10;25.40;;;128.00;1920.00;;;;;;4918833;29;20115;-71
2021/01/14 09:59:12;;;;;;;39.75;28.13;;;128.00;1945.60;;;;;;4918220;29;20028;-71
2021/01/14 10:01:52;;;;;;;56.03;36.17;;;128.10;1945.60;;;;;;4918679;29;20035;-71
2021/01/14 10:04:21;;;;;;;38.80;27.48;;;102.80;2022.40;;;;;;4918854;29;20117;-71
2021/01/14 10:07:05;;;;;;;47.17;30.08;;;102.90;1996.80;;;;;;4918838;29;20032;-71
2021/01/14 10:09:35;;;;;;;42.88;28.60;;;102.90;1996.80;;;;;;4918999;29;20028;-71
2021/01/14 10:12:05;;;;;;;60.97;38.28;;;102.90;1996.80;;;;;;4918633;29;20047;-71
2021/01/14 10:14:31;;;;;;;57.33;35.70;;;102.90;2022.40;;;;;;4918802;29;20035;-72
2021/01/14 10:17:10;;;;;;;59.20;36.22;;;103.00;2048.00;;;;;;4918348;29;20024;-72
2021/01/14 10:19:39;;;;;;;58.15;37.25;;;102.90;1996.80;;;;;;4918512;29;20024;-72
2021/01/14 10:22:06;;;;;;;64.85;42.15;;;102.90;1971.20;;;;;;4918415;29;20131;-70
2021/01/14 10:24:31;;;;;;;62.85;41.65;;;103.10;1971.20;;;;;;4918436;29;20020;-71
2021/01/14 10:27:17;;;;;;;54.85;37.10;;;102.80;2022.40;;;;;;4918270;29;20047;-71
2021/01/14 10:29:44;;;;;;;62.10;44.63;;;103.10;1971.20;;;;;;4918346;29;20028;-69
2021/01/14 10:32:23;;;;;;;55.00;34.17;;;103.10;1971.20;;;;;;4917935;29;20059;-67
2021/01/14 10:34:50;;;;;;;50.95;35.17;;;102.70;2048.00;;;;;;4916802;29;20370;-71
2021/01/14 10:37:29;;;;;;;36.90;26.02;;;102.90;2022.40;;;;;;4918112;29;20439;-70
2021/01/14 10:40:00;;;;;;;49.90;34.88;;;102.90;2022.40;;;;;;4918195;29;20052;-70
2021/01/14 10:42:29;;;;;;;54.10;35.85;;;102.90;1996.80;;;;;;4917839;29;20081;-67
2021/01/14 10:44:56;;;;;;;46.88;27.92;;;103.10;1996.80;;;;;;4917916;29;20039;-67
2021/01/14 10:47:22;;;;;;;47.35;30.52;;;103.00;2022.40;;;;;;4918003;29;20029;-69
2021/01/14 10:49:48;;;;;;;54.70;36.42;;;103.10;1996.80;;;;;;4917805;29;20394;-68
2021/01/14 10:52:14;;;;;;;49.03;30.55;;;103.00;2048.00;;;;;;4917817;29;20144;-67
2021/01/14 10:54:39;;;;;;;62.67;49.38;;;103.10;1971.20;;;;;;4917791;29;20550;-70
2021/01/14 10:57:05;;;;;;;69.25;43.38;;;103.10;1971.20;;;;;;4917846;29;20028;-67
2021/01/14 10:59:31;;;;;;;48.35;31.05;;;103.20;1971.20;;;;;;4917878;29;20046;-71
2021/01/14 11:02:07;;;;;;;57.92;33.70;;;103.30;1971.20;;;;;;4917702;29;20020;-71
2021/01/14 11:04:33;;;;;;;45.80;30.05;;;103.30;1971.20;;;;;;4915983;29;20040;-71
2021/01/14 11:07:11;;;;;;;55.95;37.58;;;103.20;1971.20;;;;;;4917668;29;20375;-67
2021/01/14 11:09:57;;;;;;;65.10;41.70;;;128.50;1996.80;;;;;;4916230;29;20038;-67
2021/01/14 11:12:23;;;;;;;66.45;41.08;;;128.20;1945.60;;;;;;4917527;29;20095;-70
2021/01/14 11:14:48;;;;;;;85.00;53.88;;;128.20;1945.60;;;;;;4932369;29;20475;-69
2021/01/14 11:17:14;;;;;;;80.35;49.20;;;128.10;1971.20;;;;;;4917531;29;20036;-70
2021/01/14 11:19:40;;;;;;;79.32;47.25;;;128.10;1971.20;;;;;;4917633;29;20028;-71
2021/01/14 11:22:05;;;;;;;88.50;52.85;;;128.40;1945.60;;;;;;4916854;29;20032;-71
2021/01/14 11:24:31;;;;;;;83.05;52.45;;;128.60;1945.60;;;;;;4917124;29;20099;-70
2021/01/14 11:26:57;;;;;;;81.82;52.53;;;128.40;1945.60;;;;;;4917358;29;20038;-70
2021/01/14 11:29:22;;;;;;;68.90;41.78;;;128.40;1945.60;;;;;;4917435;29;20097;-71
2021/01/14 11:31:48;;;;;;;66.35;40.85;;;128.20;1971.20;;;;;;4917116;29;20119;-72
2021/01/14 11:34:13;;;;;;;84.40;54.60;;;128.00;1996.80;;;;;;4917106;29;20103;-71
2021/01/14 11:36:39;;;;;;;65.15;42.05;;;103.30;2022.40;;;;;;4917087;29;20398;-71
2021/01/14 11:39:05;;;;;;;66.50;43.60;;;103.20;1996.80;;;;;;4917196;29;20028;-70
2021/01/14 11:41:30;;;;;;;68.43;42.72;;;128.10;1971.20;;;;;;4917150;29;20032;-71
2021/01/14 11:43:56;;;;;;;69.88;44.90;;;128.20;1971.20;;;;;;4917451;29;20115;-71
2021/01/14 11:46:24;;;;;;;77.90;46.28;;;128.50;1971.20;;;;;;4917166;29;20016;-71
2021/01/14 11:48:51;;;;;;;59.03;37.50;;;128.40;1971.20;;;;;;4917420;29;20080;-72
2021/01/14 11:51:16;;;;;;;70.40;43.65;;;128.20;1971.20;;;;;;4917135;29;20071;-70
2021/01/14 11:53:42;;;;;;;68.40;43.65;;;128.10;2022.40;;;;;;4917136;29;20059;-71
2021/01/14 11:56:08;;;;;;;67.32;44.47;;;128.10;1996.80;;;;;;4917025;29;20040;-71
2021/01/14 11:58:37;;;;;;;67.55;49.35;;;103.30;1971.20;;;;;;4916972;29;20020;-71
2021/01/14 12:01:03;;;;;;;76.30;49.20;;;103.30;2022.40;;;;;;4916928;29;20487;-71
2021/01/14 12:03:31;;;;;;;63.85;46.20;;;128.40;1996.80;;;;;;4917047;29;20398;-69
2021/01/14 12:05:57;;;;;;;70.28;47.72;;;128.40;1945.60;;;;;;4917048;29;20032;-70
2021/01/14 12:08:22;;;;;;;81.43;50.42;;;128.60;1945.60;;;;;;4915707;29;20526;-71
2021/01/14 12:10:48;;;;;;;65.65;39.88;;;128.40;1971.20;;;;;;4916885;29;20036;-71
2021/01/14 12:13:14;;;;;;;57.28;36.33;;;128.10;1971.20;;;;;;4916768;29;20534;-72